Harrisville, MI

8:53 PM EST on December 02, 2016 (GMT -0500)
Chippewa Heights Subdivsion | | Change Station

Elev 607 ft 44.49 °N, 83.39 °W | Updated 16 seconds ago

Overcast
Overcast
38.7 °F
Feels Like 39 °F
N
2.0
Wind Variable Wind from WNW

Today
High -- | Low -- °F
--% Chance of Precip.
Yesterday
High -- | Low -- °F
Precip. -- in
Pressure 30.10 in
Visibility 10.0 miles
Clouds Overcast 1900 ft
Windchill 39 °F
Dew Point 35 °F
Humidity 88%
Rainfall 0.00 in
Snow Depth Not available.
7:51 AM 4:53 PM
Waxing Crescent, 11% visible
METAR KOSC 030134Z AUTO 29010G15KT 10SM OVC019 04/01 A3010 RMK AO2 T00430010
Pressure 30.10 in
Visibility 10.0 miles
Clouds Overcast 1900 ft
Windchill 39 °F
Dew Point 35 °F
Humidity 88%
Rainfall 0.00 in
Snow Depth Not available.
7:51 AM 4:53 PM
Waxing Crescent, 11% visible
METAR KOSC 030134Z AUTO 29010G15KT 10SM OVC019 04/01 A3010 RMK AO2 T00430010

10-Day Weather Forecast

Almanac

Astronomy

Dec. 02, 2016 Rise Set
Actual Time
Civil Twilight
Nautical Twilight
Astronomical Twilight
Moon
Length of Visible Light
Length of Day
Tomorrow will be .
, % of the Moon is Illuminated

Today's Extremes

State Highs State Lows

Community

WunderPhotos

Upload Photos

1,955,392 photos uploaded!

WunderBlog® & News

Nearby

Air Quality

  Air Quality AQ Index Pollutant
Not available.

Snow Depth

Station Depth Elevation

Earthquake Activity

City Distance Mag. Time & Date
Minimum magnitude displayed is 2.5.

Coastal Water Temperatures

Place Temperature

Stations

Nearby Weather Stations

Station Location Temp. Windchill Dew Point Humidity Wind Precip. Elev Updated Type
                   

Watches & Warnings

There are currently no watches in effect.